This is the latest recevied weather packets stored in our database for station/object W2BP-13. If no packets are shown the sender has not sent any weather packets the latest 1 day(s).
| Time | Temp. | Humidity | Pressure | Rain* | Wind** | Luminosity | Snow |
|---|---|---|---|---|---|---|---|
| 1778097333 | 27.78° C | 37% | 1017.4 hPa | 0 mm | - | - | - |
| 1778091033 | 24.44° C | 45% | 1018 hPa | 0 mm | - | - | - |
| 1778084733 | 21.11° C | 53% | 1019.3 hPa | 0 mm | - | - | - |
| 1778082033 | 20° C | 55% | 1019.3 hPa | 0 mm | - | - | - |
| 1778076633 | 15.56° C | 72% | 1018.9 hPa | 0 mm | - | - | - |
| 1778075733 | 15° C | 73% | 1018.9 hPa | 0 mm | - | - | - |
| 1778067633 | 12.78° C | 80% | 1017.6 hPa | 0 mm | - | - | - |
| 1778066733 | 13.33° C | 78% | 1017.3 hPa | 0 mm | - | - | - |
| 1778058633 | 14.44° C | 75% | 1016.3 hPa | 0 mm | - | - | - |
| 1778055033 | 15.56° C | 69% | 1016.3 hPa | 0 mm | - | - | - |
| 1778054133 | 16.11° C | 66% | 1015.9 hPa | 0 mm | - | - | - |
| 1778049633 | 17.22° C | 59% | 1015.6 hPa | 0 mm | - | - | - |
| 1778048733 | 17.78° C | 56% | 1015.5 hPa | 0 mm | - | - | - |
| 1778047833 | 17.78° C | 58% | 1015.1 hPa | 0 mm | - | - | - |
| 1778046932 | 18.89° C | 57% | 1015.3 hPa | 0 mm | - | - | - |
| 1778045133 | 19.44° C | 54% | 1014.6 hPa | 0 mm | - | - | - |
| 1778043333 | 21.67° C | 47% | 1014.5 hPa | 0 mm | - | - | - |
| 1778042433 | 22.22° C | 44% | 1014.5 hPa | 0 mm | - | - | - |
| 1778041533 | 22.78° C | 45% | 1014.3 hPa | 0 mm | - | - | - |
| 1778040632 | 22.78° C | 46% | 1014.4 hPa | 0 mm | - | - | - |
| 1778037032 | 25° C | 37% | 1014.1 hPa | 0 mm | - | - | - |
| 1778036132 | 26.11° C | 34% | 1013.8 hPa | 0 mm | - | - | - |
| 1778034332 | 27.78° C | 30% | 1013.6 hPa | 0 mm | - | - | - |
| 1778033433 | 30.56° C | 25% | 1013.6 hPa | 0 mm | - | - | - |
| 1778032532 | 30° C | 24% | 1013.7 hPa | 0 mm | - | - | - |
* Rain latest hour (hover to see other rain measurements)
** Current wind speed in m/s (hover to see current wind gust speed)